createdAt,value
2023-03-19T00:00:03.318Z,7.87
2023-03-19T00:01:03.727Z,7.90
2023-03-19T00:02:16.188Z,7.83
2023-03-19T00:03:03.856Z,7.85
2023-03-19T00:04:02.648Z,7.83
2023-03-19T00:05:02.521Z,7.85
2023-03-19T00:06:02.479Z,7.83
2023-03-19T00:07:02.288Z,7.88
2023-03-19T00:08:02.257Z,7.87
2023-03-19T00:09:02.072Z,7.80
2023-03-19T00:10:01.945Z,7.80
2023-03-19T00:11:01.893Z,7.80
2023-03-19T00:12:01.721Z,7.79
2023-03-19T00:13:01.611Z,7.88
2023-03-19T00:14:01.492Z,7.80
2023-03-19T00:15:01.401Z,7.88
2023-03-19T00:16:01.345Z,7.85
2023-03-19T00:17:01.199Z,7.80
2023-03-19T00:18:01.064Z,7.85
2023-03-19T00:19:00.997Z,7.76
2023-03-19T00:20:00.820Z,7.83
2023-03-19T00:21:00.783Z,7.87
2023-03-19T00:22:00.596Z,7.85
2023-03-19T00:23:00.474Z,7.77
2023-03-19T00:24:00.354Z,7.87
2023-03-19T00:25:00.271Z,7.83
2023-03-19T00:26:00.212Z,7.88
2023-03-19T00:27:00.043Z,7.83
2023-03-19T00:27:59.905Z,7.79
2023-03-19T00:28:59.797Z,7.85
2023-03-19T00:29:59.752Z,7.79
2023-03-19T00:30:59.668Z,7.80
2023-03-19T00:31:59.455Z,7.83
2023-03-19T00:32:59.367Z,7.87
2023-03-19T00:33:59.250Z,7.85
2023-03-19T00:34:59.130Z,7.82
2023-03-19T00:35:59.077Z,7.83
2023-03-19T00:36:58.915Z,7.79
2023-03-19T00:37:58.789Z,7.82
2023-03-19T00:38:58.672Z,7.82
2023-03-19T00:39:58.562Z,7.83
2023-03-19T00:40:58.509Z,7.76
2023-03-19T00:41:58.326Z,7.77
2023-03-19T00:42:58.220Z,7.73
2023-03-19T00:43:58.137Z,7.85
2023-03-19T00:44:57.975Z,7.75
2023-03-19T00:45:58.005Z,7.85
2023-03-19T00:46:57.763Z,7.75
2023-03-19T00:47:57.679Z,7.73
2023-03-19T00:48:57.549Z,7.82
2023-03-19T00:49:57.439Z,7.83
2023-03-19T00:50:57.382Z,7.77
2023-03-19T00:51:57.485Z,7.83
2023-03-19T00:52:57.139Z,7.73
2023-03-19T00:53:57.015Z,7.83
2023-03-19T00:54:56.871Z,7.73
2023-03-19T00:55:56.778Z,7.80
2023-03-19T00:56:56.699Z,7.82
2023-03-19T00:57:56.529Z,7.79
2023-03-19T00:58:56.421Z,7.75
2023-03-19T00:59:56.299Z,7.83
2023-03-19T01:00:56.210Z,7.85
2023-03-19T01:01:56.150Z,7.75
2023-03-19T01:02:55.963Z,7.79
2023-03-19T01:03:55.901Z,7.76
2023-03-19T01:04:55.753Z,7.83
2023-03-19T01:05:55.629Z,7.83
2023-03-19T01:06:55.568Z,7.76
2023-03-19T01:07:55.415Z,7.82
2023-03-19T01:08:55.287Z,7.72
2023-03-19T01:09:55.177Z,7.69
2023-03-19T01:10:55.038Z,7.76
2023-03-19T01:11:54.927Z,7.75
2023-03-19T01:12:54.904Z,7.70
2023-03-19T01:13:54.693Z,7.91
2023-03-19T01:14:54.592Z,7.70
2023-03-19T01:15:54.473Z,7.70
2023-03-19T01:16:54.361Z,7.80
2023-03-19T01:17:54.311Z,7.72
2023-03-19T01:18:54.170Z,7.85
2023-03-19T01:19:54.029Z,7.83
2023-03-19T01:20:53.926Z,7.83
2023-03-19T01:21:53.874Z,7.83
2023-03-19T01:22:53.763Z,7.82
2023-03-19T01:23:53.615Z,7.85
2023-03-19T01:24:53.581Z,7.82
2023-03-19T01:25:53.393Z,7.75
2023-03-19T01:26:53.325Z,7.85
2023-03-19T01:27:53.167Z,7.73
2023-03-19T01:28:53.054Z,7.76
2023-03-19T01:29:52.963Z,7.75
2023-03-19T01:30:52.882Z,7.82
2023-03-19T01:31:52.776Z,7.85
2023-03-19T01:32:52.679Z,7.83
2023-03-19T01:33:52.536Z,7.79
2023-03-19T01:34:52.406Z,7.77
2023-03-19T01:35:52.327Z,7.79
2023-03-19T01:36:52.285Z,7.76
2023-03-19T01:37:52.072Z,7.79
2023-03-19T01:38:51.976Z,7.70
2023-03-19T01:39:51.846Z,7.73
2023-03-19T01:40:51.824Z,7.73
2023-03-19T01:41:51.635Z,7.69
2023-03-19T01:42:51.578Z,7.73
2023-03-19T01:43:51.432Z,7.69
2023-03-19T01:44:51.365Z,7.70
2023-03-19T01:45:51.552Z,7.77
2023-03-19T01:46:51.201Z,7.76
2023-03-19T01:47:50.999Z,7.67
2023-03-19T01:48:50.895Z,7.70
2023-03-19T01:49:50.769Z,7.75
2023-03-19T01:50:50.743Z,7.69
2023-03-19T01:51:50.561Z,7.57
2023-03-19T01:52:50.465Z,7.67
2023-03-19T01:53:50.413Z,7.57
2023-03-19T01:54:50.273Z,7.72
2023-03-19T01:55:50.131Z,7.54
2023-03-19T01:56:50.035Z,7.69
2023-03-19T01:57:49.908Z,7.69
2023-03-19T01:58:49.861Z,7.76
2023-03-19T01:59:49.702Z,7.76
2023-03-19T02:00:49.592Z,7.70
2023-03-19T02:01:49.747Z,7.70
2023-03-19T02:02:49.383Z,7.82
2023-03-19T02:03:49.243Z,7.83
2023-03-19T02:04:49.232Z,7.83
2023-03-19T02:05:49.024Z,7.85
2023-03-19T02:06:49.065Z,7.83
2023-03-19T02:07:48.801Z,7.83
2023-03-19T02:08:48.693Z,7.83
2023-03-19T02:09:48.584Z,7.76
2023-03-19T02:10:48.488Z,7.85
2023-03-19T02:11:48.431Z,7.82
2023-03-19T02:12:48.360Z,7.90
2023-03-19T02:13:48.153Z,7.91
2023-03-19T02:14:48.056Z,7.93
2023-03-19T02:15:47.965Z,7.95
2023-03-19T02:16:47.912Z,8.00
2023-03-19T02:17:47.776Z,8.08
2023-03-19T02:18:47.692Z,8.05
2023-03-19T02:19:47.747Z,8.09
2023-03-19T02:20:47.394Z,8.00
2023-03-19T02:21:47.332Z,8.10
2023-03-19T02:22:47.179Z,8.09
2023-03-19T02:23:47.132Z,8.15
2023-03-19T02:24:46.962Z,8.15
2023-03-19T02:25:46.850Z,8.16
2023-03-19T02:26:46.733Z,8.15
2023-03-19T02:27:46.629Z,8.23
2023-03-19T02:28:46.579Z,8.23
2023-03-19T02:29:47.004Z,8.28
2023-03-19T02:30:46.292Z,8.23
2023-03-19T02:31:46.251Z,8.26
2023-03-19T02:32:46.086Z,8.26
2023-03-19T02:33:46.006Z,8.24
2023-03-19T02:34:45.844Z,8.26
2023-03-19T02:35:45.750Z,8.27
2023-03-19T02:36:45.609Z,8.26
2023-03-19T02:37:45.491Z,8.23
2023-03-19T02:38:45.430Z,8.27
2023-03-19T02:39:45.266Z,8.34
2023-03-19T02:40:45.156Z,8.28
2023-03-19T02:41:45.116Z,8.30
2023-03-19T02:42:44.927Z,8.33
2023-03-19T02:43:44.831Z,8.31
2023-03-19T02:44:44.702Z,8.36
2023-03-19T02:45:44.579Z,8.42
2023-03-19T02:46:44.611Z,8.36
2023-03-19T02:47:44.341Z,8.30
2023-03-19T02:48:44.227Z,8.44
2023-03-19T02:49:44.124Z,8.33
2023-03-19T02:50:43.988Z,8.36
2023-03-19T02:51:43.962Z,8.31
2023-03-19T02:52:43.757Z,8.31
2023-03-19T02:53:43.640Z,8.27
2023-03-19T02:54:43.507Z,8.31
2023-03-19T02:55:43.431Z,8.30
2023-03-19T02:56:43.329Z,8.31
2023-03-19T02:57:43.146Z,8.31
2023-03-19T02:58:43.027Z,8.33
2023-03-19T02:59:42.921Z,8.33
2023-03-19T03:00:42.920Z,8.31
2023-03-19T03:01:42.760Z,8.30
2023-03-19T03:02:42.559Z,8.34
2023-03-19T03:03:42.498Z,8.33
2023-03-19T03:04:42.326Z,8.33
2023-03-19T03:05:42.218Z,8.33
2023-03-19T03:06:42.092Z,8.30
2023-03-19T03:07:41.962Z,8.30
2023-03-19T03:08:41.875Z,8.24
2023-03-19T03:09:41.700Z,8.34
2023-03-19T03:10:41.602Z,8.16
2023-03-19T03:11:41.525Z,8.18
2023-03-19T03:12:41.355Z,8.24
2023-03-19T03:13:41.305Z,8.24
2023-03-19T03:14:41.117Z,8.20
2023-03-19T03:15:40.997Z,8.20
2023-03-19T03:16:40.934Z,8.10
2023-03-19T03:17:40.777Z,8.06
2023-03-19T03:18:40.705Z,8.08
2023-03-19T03:19:40.536Z,8.12
2023-03-19T03:20:40.413Z,8.05
2023-03-19T03:21:40.283Z,8.01
2023-03-19T03:22:40.188Z,8.08
2023-03-19T03:23:40.116Z,8.00
2023-03-19T03:24:39.940Z,8.03
2023-03-19T03:25:39.810Z,7.98
2023-03-19T03:26:39.732Z,8.01
2023-03-19T03:27:39.557Z,8.03
2023-03-19T03:28:39.510Z,7.98
2023-03-19T03:29:39.311Z,8.00
2023-03-19T03:30:39.205Z,8.10
2023-03-19T03:31:39.104Z,8.01
2023-03-19T03:32:38.992Z,8.00
2023-03-19T03:33:38.872Z,8.06
2023-03-19T03:34:38.702Z,8.05
2023-03-19T03:35:38.671Z,8.06
2023-03-19T03:36:38.430Z,7.95
2023-03-19T03:37:38.325Z,8.06
2023-03-19T03:38:38.248Z,8.01
2023-03-19T03:39:38.031Z,8.01
2023-03-19T03:40:37.940Z,7.98
2023-03-19T03:41:37.796Z,8.01
2023-03-19T03:42:37.659Z,8.05
2023-03-19T03:43:37.595Z,8.06
2023-03-19T03:44:37.466Z,8.03
2023-03-19T03:45:37.323Z,8.05
2023-03-19T03:46:37.176Z,8.05
2023-03-19T03:47:37.041Z,8.01
2023-03-19T03:48:37.221Z,8.10
2023-03-19T03:49:36.871Z,8.10
2023-03-19T03:50:36.675Z,8.10
2023-03-19T03:51:36.581Z,8.10
2023-03-19T03:52:36.458Z,8.06
2023-03-19T03:53:36.314Z,8.06
2023-03-19T03:54:36.260Z,8.01
2023-03-19T03:55:36.073Z,8.06
2023-03-19T03:56:35.966Z,8.10
2023-03-19T03:57:35.848Z,8.00
2023-03-19T03:58:35.741Z,8.08
2023-03-19T03:59:35.691Z,8.05
2023-03-19T04:00:35.781Z,8.03
2023-03-19T04:01:35.356Z,8.01
2023-03-19T04:02:35.288Z,8.01
2023-03-19T04:03:35.266Z,8.05
2023-03-19T04:04:35.081Z,8.01
2023-03-19T04:05:34.875Z,7.98
2023-03-19T04:06:34.767Z,8.01
2023-03-19T04:07:34.654Z,7.98
2023-03-19T04:08:34.546Z,7.98
2023-03-19T04:09:34.786Z,8.03
2023-03-19T04:10:34.572Z,8.05
2023-03-19T04:11:34.157Z,7.98
2023-03-19T04:12:34.046Z,8.18
2023-03-19T04:13:33.928Z,8.12
2023-03-19T04:14:33.858Z,8.09
2023-03-19T04:15:33.683Z,8.15
2023-03-19T04:16:33.601Z,8.15
2023-03-19T04:17:33.456Z,8.15
2023-03-19T04:18:33.390Z,8.08
2023-03-19T04:19:33.215Z,8.03
2023-03-19T04:20:33.436Z,8.08
2023-03-19T04:21:32.976Z,8.03
2023-03-19T04:22:32.860Z,8.10
2023-03-19T04:23:32.798Z,8.06
2023-03-19T04:24:32.632Z,8.01
2023-03-19T04:25:32.506Z,8.05
2023-03-19T04:26:32.445Z,8.01
2023-03-19T04:27:32.277Z,8.05
2023-03-19T04:28:32.147Z,8.00
2023-03-19T04:29:32.017Z,8.00
2023-03-19T04:30:34.773Z,8.08
2023-03-19T04:31:31.839Z,8.03
2023-03-19T04:32:31.708Z,8.03
2023-03-19T04:33:31.545Z,8.01
2023-03-19T04:34:31.431Z,8.00
2023-03-19T04:35:31.373Z,8.05
2023-03-19T04:36:31.217Z,8.08
2023-03-19T04:37:31.130Z,8.05
2023-03-19T04:38:30.940Z,8.08
2023-03-19T04:39:30.817Z,8.05
2023-03-19T04:40:30.695Z,8.06
2023-03-19T04:41:30.565Z,8.00
2023-03-19T04:42:30.502Z,8.06
2023-03-19T04:43:30.317Z,8.05
2023-03-19T04:44:30.197Z,8.03
2023-03-19T04:45:30.127Z,8.05
2023-03-19T04:46:30.056Z,8.00
2023-03-19T04:47:29.828Z,8.03
2023-03-19T04:48:29.784Z,8.13
2023-03-19T04:49:29.586Z,8.09
2023-03-19T04:50:29.541Z,8.08
2023-03-19T04:51:29.339Z,8.08
2023-03-19T04:52:29.234Z,8.09
2023-03-19T04:53:29.136Z,8.12
2023-03-19T04:54:28.976Z,8.13
2023-03-19T04:55:28.903Z,8.10
2023-03-19T04:56:28.746Z,8.10
2023-03-19T04:57:28.616Z,8.16
2023-03-19T04:58:28.496Z,8.19
2023-03-19T04:59:28.354Z,8.20
2023-03-19T05:00:28.286Z,8.15
2023-03-19T05:01:28.124Z,8.24
2023-03-19T05:02:27.971Z,8.20
2023-03-19T05:03:27.896Z,8.23
2023-03-19T05:04:27.804Z,8.23
2023-03-19T05:05:27.620Z,8.15
2023-03-19T05:06:27.494Z,8.27
2023-03-19T05:07:27.374Z,8.19
2023-03-19T05:08:27.300Z,8.30
2023-03-19T05:09:27.200Z,8.19
2023-03-19T05:10:27.132Z,8.33
2023-03-19T05:11:26.905Z,8.19
2023-03-19T05:12:26.773Z,8.28
2023-03-19T05:13:26.649Z,8.26
2023-03-19T05:14:26.537Z,8.27
2023-03-19T05:15:26.418Z,8.26
2023-03-19T05:16:26.349Z,8.24
2023-03-19T05:17:26.165Z,8.24
2023-03-19T05:18:26.116Z,8.28
2023-03-19T05:19:25.930Z,8.27
2023-03-19T05:20:25.860Z,8.31
2023-03-19T05:21:25.710Z,8.27
2023-03-19T05:22:25.567Z,8.33
2023-03-19T05:23:25.507Z,8.31
2023-03-19T05:24:25.355Z,8.36
2023-03-19T05:25:25.254Z,8.30
2023-03-19T05:26:25.078Z,8.34
2023-03-19T05:27:24.957Z,8.33
2023-03-19T05:28:24.904Z,8.34
2023-03-19T05:29:24.722Z,8.33
2023-03-19T05:30:24.840Z,8.36
2023-03-19T05:31:24.550Z,8.30
2023-03-19T05:32:24.352Z,8.37
2023-03-19T05:33:24.230Z,8.31
2023-03-19T05:34:24.144Z,8.33
2023-03-19T05:35:23.998Z,8.30
2023-03-19T05:36:23.914Z,8.36
2023-03-19T05:37:23.737Z,8.48
2023-03-19T05:38:23.621Z,8.44
2023-03-19T05:39:23.529Z,8.42
2023-03-19T05:40:23.404Z,8.44
2023-03-19T05:41:23.306Z,8.42
2023-03-19T05:42:23.124Z,8.44
2023-03-19T05:43:23.023Z,8.42
2023-03-19T05:44:22.903Z,8.44
2023-03-19T05:45:22.763Z,8.44
2023-03-19T05:46:22.752Z,8.38
2023-03-19T05:47:22.529Z,8.31
2023-03-19T05:48:22.402Z,8.42
2023-03-19T05:49:22.276Z,8.44
2023-03-19T05:50:22.206Z,8.37
2023-03-19T05:51:22.038Z,8.46
2023-03-19T05:52:21.957Z,8.44
2023-03-19T05:53:22.556Z,8.48
2023-03-19T05:54:21.659Z,8.44
2023-03-19T05:55:21.520Z,8.49
2023-03-19T05:56:21.508Z,8.45
2023-03-19T05:57:21.261Z,8.46
2023-03-19T05:58:21.145Z,8.46
2023-03-19T05:59:21.023Z,8.44
2023-03-19T06:00:20.910Z,8.46
2023-03-19T06:01:22.692Z,8.49
2023-03-19T06:02:20.750Z,8.42
2023-03-19T06:03:20.603Z,8.45
2023-03-19T06:04:20.526Z,8.41
2023-03-19T06:05:20.333Z,8.55
2023-03-19T06:06:20.136Z,8.51
2023-03-19T06:07:20.027Z,8.58
2023-03-19T06:08:19.909Z,8.55
2023-03-19T06:09:19.789Z,8.56
2023-03-19T06:10:19.754Z,8.55
2023-03-19T06:11:19.544Z,8.66
2023-03-19T06:12:19.425Z,8.55
2023-03-19T06:13:19.348Z,8.58
2023-03-19T06:14:19.165Z,8.61
2023-03-19T06:15:19.030Z,8.61
2023-03-19T06:16:18.958Z,8.60
2023-03-19T06:17:18.822Z,8.53
2023-03-19T06:18:18.654Z,8.66
2023-03-19T06:19:18.591Z,8.70
2023-03-19T06:20:18.444Z,8.58
2023-03-19T06:21:18.396Z,8.64
2023-03-19T06:22:18.146Z,8.64
2023-03-19T06:23:18.021Z,8.64
2023-03-19T06:24:17.872Z,8.64
2023-03-19T06:25:17.790Z,8.67
2023-03-19T06:26:17.697Z,8.76
2023-03-19T06:27:17.500Z,8.73
2023-03-19T06:28:17.447Z,8.70
2023-03-19T06:29:17.263Z,8.74
2023-03-19T06:30:17.138Z,8.76
2023-03-19T06:31:17.108Z,8.78
2023-03-19T06:32:16.876Z,8.73
2023-03-19T06:33:16.758Z,8.79
2023-03-19T06:34:16.626Z,8.79
2023-03-19T06:35:16.518Z,8.82
2023-03-19T06:36:16.457Z,8.79
2023-03-19T06:37:16.271Z,8.84
2023-03-19T06:38:16.151Z,8.79
2023-03-19T06:39:16.010Z,8.81
2023-03-19T06:40:15.906Z,8.85
2023-03-19T06:41:15.823Z,8.78
2023-03-19T06:42:15.634Z,8.84
2023-03-19T06:43:15.496Z,8.84
2023-03-19T06:44:15.379Z,8.87
2023-03-19T06:45:15.244Z,8.94
2023-03-19T06:46:15.181Z,8.89
2023-03-19T06:47:14.969Z,8.88
2023-03-19T06:48:14.847Z,8.91
2023-03-19T06:49:14.711Z,8.99
2023-03-19T06:50:14.649Z,8.92
2023-03-19T06:51:14.476Z,9.00
2023-03-19T06:52:14.330Z,9.04
2023-03-19T06:53:14.199Z,9.02
2023-03-19T06:54:14.067Z,9.18
2023-03-19T06:55:14.033Z,9.13
2023-03-19T06:56:13.793Z,9.18
2023-03-19T06:57:13.684Z,9.21
2023-03-19T06:58:13.560Z,9.29
2023-03-19T06:59:13.426Z,9.28
2023-03-19T07:00:13.367Z,9.31
2023-03-19T07:01:13.222Z,9.28
2023-03-19T07:02:13.029Z,9.31
2023-03-19T07:03:12.902Z,9.34
2023-03-19T07:04:12.848Z,9.46
2023-03-19T07:05:12.708Z,9.39
2023-03-19T07:06:12.496Z,9.55
2023-03-19T07:07:12.412Z,9.50
2023-03-19T07:08:12.230Z,9.66
2023-03-19T07:09:12.092Z,9.59
2023-03-19T07:10:11.967Z,9.66
2023-03-19T07:11:11.869Z,9.66
2023-03-19T07:12:11.784Z,9.77
2023-03-19T07:13:11.553Z,9.86
2023-03-19T07:14:11.416Z,9.89
2023-03-19T07:15:11.277Z,9.89
2023-03-19T07:16:11.321Z,10.01
2023-03-19T07:17:10.994Z,9.92
2023-03-19T07:18:10.858Z,10.07
2023-03-19T07:19:10.725Z,10.16
2023-03-19T07:20:10.610Z,10.17
2023-03-19T07:21:10.450Z,10.19
2023-03-19T07:22:10.402Z,10.23
2023-03-19T07:23:10.177Z,10.34
2023-03-19T07:24:10.022Z,10.26
2023-03-19T07:25:09.885Z,10.48
2023-03-19T07:26:09.759Z,10.41
2023-03-19T07:27:09.675Z,10.41
2023-03-19T07:28:09.473Z,10.49
2023-03-19T07:29:09.377Z,10.54
2023-03-19T07:30:09.473Z,10.51
2023-03-19T07:31:09.031Z,10.59
2023-03-19T07:32:08.905Z,10.64
2023-03-19T07:33:08.889Z,10.63
2023-03-19T07:34:08.757Z,10.74
2023-03-19T07:35:08.475Z,10.71
2023-03-19T07:36:08.334Z,10.75
2023-03-19T07:37:08.222Z,10.76
2023-03-19T07:38:08.029Z,10.81
2023-03-19T07:39:07.997Z,10.94
2023-03-19T07:40:07.763Z,10.84
2023-03-19T07:41:07.896Z,10.97
2023-03-19T07:42:07.497Z,11.04
2023-03-19T07:43:07.302Z,11.08
2023-03-19T07:44:07.167Z,11.02
2023-03-19T07:45:07.019Z,11.08
2023-03-19T07:46:06.959Z,11.10
2023-03-19T07:47:08.174Z,11.17
2023-03-19T07:48:08.199Z,11.23
2023-03-19T07:49:06.438Z,11.27
2023-03-19T07:50:06.914Z,11.41
2023-03-19T07:51:06.183Z,11.55
2023-03-19T07:52:05.982Z,11.54
2023-03-19T07:53:06.031Z,11.65
2023-03-19T07:54:05.691Z,11.62
2023-03-19T07:55:05.598Z,11.70
2023-03-19T07:56:05.402Z,11.75
2023-03-19T07:57:05.223Z,11.78
2023-03-19T07:58:05.426Z,11.83
2023-03-19T07:59:04.910Z,11.77
2023-03-19T08:00:04.835Z,11.75
2023-03-19T08:01:04.697Z,11.88
2023-03-19T08:02:04.459Z,11.77
2023-03-19T08:03:04.332Z,11.77
2023-03-19T08:04:04.251Z,11.78
2023-03-19T08:05:03.964Z,11.73
2023-03-19T08:06:03.956Z,11.75
2023-03-19T08:07:03.662Z,11.75
2023-03-19T08:08:03.574Z,11.65
2023-03-19T08:09:03.847Z,11.69
2023-03-19T08:10:03.169Z,11.68
2023-03-19T08:11:03.091Z,11.68
2023-03-19T08:12:02.860Z,11.70
2023-03-19T08:13:02.701Z,11.57
2023-03-19T08:14:02.550Z,11.57
2023-03-19T08:15:02.677Z,11.59
2023-03-19T08:16:02.207Z,11.48
2023-03-19T08:17:02.217Z,11.51
2023-03-19T08:18:01.860Z,11.60
2023-03-19T08:19:01.749Z,11.51
2023-03-19T08:20:01.620Z,11.57
2023-03-19T08:21:01.370Z,11.60
2023-03-19T08:22:01.203Z,11.60
2023-03-19T08:23:01.075Z,11.57
2023-03-19T08:24:02.561Z,11.62
2023-03-19T08:25:00.744Z,11.65
2023-03-19T08:26:00.567Z,11.66
2023-03-19T08:27:00.394Z,11.68
2023-03-19T08:28:00.241Z,11.72
2023-03-19T09:06:23.789Z,12.40
2023-03-19T09:07:23.672Z,12.40
2023-03-19T09:08:24.480Z,12.39
2023-03-19T09:09:23.913Z,12.45
2023-03-19T09:10:23.477Z,12.42
2023-03-19T09:11:23.525Z,12.47
2023-03-19T09:12:23.405Z,12.53
2023-03-19T09:13:23.416Z,12.47
2023-03-19T09:14:23.439Z,12.46
2023-03-19T09:15:23.431Z,12.47
2023-03-19T09:16:23.485Z,12.46
2023-03-19T09:17:23.344Z,12.60
2023-03-19T09:18:23.768Z,12.65
2023-03-19T09:19:23.334Z,12.62
2023-03-19T09:20:23.324Z,12.72
2023-03-19T09:21:24.349Z,12.68
2023-03-19T09:22:23.310Z,12.73
2023-03-19T09:23:23.290Z,12.72
2023-03-19T09:24:23.326Z,12.68
2023-03-19T09:25:23.823Z,12.70
2023-03-19T09:26:23.249Z,12.67
2023-03-19T09:27:23.238Z,12.64
2023-03-19T09:28:23.244Z,12.62
2023-03-19T09:29:23.297Z,12.58
2023-03-19T09:30:23.265Z,12.65
2023-03-19T09:31:23.324Z,12.54
2023-03-19T09:32:23.205Z,12.42
2023-03-19T09:33:23.192Z,12.50
2023-03-19T09:34:23.235Z,12.50
2023-03-19T09:35:23.262Z,12.45
2023-03-19T09:36:23.143Z,12.40
2023-03-19T09:37:23.160Z,12.37
2023-03-19T09:38:23.135Z,12.36
2023-03-19T09:39:23.130Z,12.35
2023-03-19T09:40:23.202Z,12.39
2023-03-19T09:41:23.110Z,12.36
2023-03-19T09:42:23.115Z,12.35
2023-03-19T09:43:23.074Z,12.40
2023-03-19T09:44:23.071Z,12.45
2023-03-19T09:45:23.126Z,12.46
2023-03-19T09:46:23.134Z,12.46
2023-03-19T09:47:23.042Z,12.50
2023-03-19T09:48:23.037Z,12.54
2023-03-19T09:49:23.097Z,12.54
2023-03-19T09:50:23.140Z,12.47
2023-03-19T09:51:23.000Z,12.53
2023-03-19T09:52:22.988Z,12.58
2023-03-19T09:53:22.984Z,12.57
2023-03-19T09:54:22.967Z,12.70
2023-03-19T09:55:23.022Z,12.75
2023-03-19T09:56:22.948Z,12.95
2023-03-19T09:57:22.946Z,12.90
2023-03-19T09:58:22.931Z,12.91
2023-03-19T09:59:22.926Z,13.09
2023-03-19T10:00:22.957Z,13.18
2023-03-19T10:01:22.965Z,13.23
2023-03-19T10:02:22.894Z,13.20
2023-03-19T10:03:22.866Z,13.15
2023-03-19T10:04:22.982Z,13.08
2023-03-19T10:05:22.932Z,13.05
2023-03-19T10:06:22.846Z,13.01
2023-03-19T10:07:22.821Z,13.05
2023-03-19T10:08:22.822Z,13.05
2023-03-19T10:09:22.822Z,13.03
2023-03-19T10:10:22.891Z,13.04
2023-03-19T10:11:22.841Z,13.08
2023-03-19T10:12:22.846Z,13.09
2023-03-19T10:13:22.772Z,13.03
2023-03-19T10:14:22.759Z,12.87
2023-03-19T10:15:22.787Z,12.93
2023-03-19T10:16:22.838Z,12.90
2023-03-19T10:17:22.730Z,12.90
2023-03-19T10:18:22.718Z,12.91
2023-03-19T10:19:22.717Z,12.94
2023-03-19T10:20:22.693Z,12.93
2023-03-19T10:21:22.805Z,12.87
2023-03-19T10:22:22.701Z,12.82
2023-03-19T10:23:22.675Z,12.83
2023-03-19T10:24:22.662Z,12.78
2023-03-19T10:25:22.659Z,12.80
2023-03-19T10:26:22.639Z,12.83
2023-03-19T10:27:22.686Z,12.82
2023-03-19T10:28:22.642Z,12.68
2023-03-19T10:29:22.609Z,12.72
2023-03-19T10:30:22.649Z,12.67
2023-03-19T10:31:22.649Z,12.76
2023-03-19T10:32:22.640Z,12.58
2023-03-19T10:33:22.569Z,12.62
2023-03-19T10:34:22.561Z,12.70
2023-03-19T10:35:22.593Z,12.72
2023-03-19T10:36:22.567Z,12.68
2023-03-19T10:37:22.612Z,12.68
2023-03-19T10:38:22.520Z,12.70
2023-03-19T10:39:22.495Z,12.72
2023-03-19T10:40:22.569Z,12.70
2023-03-19T10:41:22.462Z,12.68
2023-03-19T10:42:22.504Z,12.68
2023-03-19T10:43:22.505Z,12.73
2023-03-19T10:44:22.433Z,12.68
2023-03-19T10:45:22.510Z,12.68
2023-03-19T10:46:22.625Z,12.68
2023-03-19T10:47:22.475Z,12.75
2023-03-19T10:48:22.428Z,12.83
2023-03-19T10:49:22.388Z,12.90
2023-03-19T10:50:22.374Z,12.94
2023-03-19T10:51:22.425Z,12.95
2023-03-19T10:52:22.437Z,12.93
2023-03-19T10:53:22.353Z,13.01
2023-03-19T10:54:22.345Z,13.12
2023-03-19T10:55:22.337Z,13.01
2023-03-19T10:56:22.398Z,13.19
2023-03-19T10:57:22.375Z,13.23
2023-03-19T10:58:22.325Z,13.37
2023-03-19T10:59:22.278Z,13.31
2023-03-19T11:00:22.277Z,13.18
2023-03-19T11:01:22.379Z,13.20
2023-03-19T11:02:23.410Z,13.16
2023-03-19T11:03:22.315Z,13.20
2023-03-19T11:04:22.305Z,13.22
2023-03-19T11:05:22.269Z,13.22
2023-03-19T11:06:22.219Z,13.23
2023-03-19T11:07:22.189Z,13.31
2023-03-19T11:08:34.950Z,13.28
2023-03-19T11:09:23.178Z,13.30
2023-03-19T11:10:22.266Z,13.28
2023-03-19T11:11:22.182Z,13.31
2023-03-19T11:12:22.157Z,13.39
2023-03-19T11:13:22.281Z,13.28
2023-03-19T11:14:22.147Z,13.35
2023-03-19T11:15:22.121Z,13.28
2023-03-19T11:16:22.124Z,13.30
2023-03-19T11:17:22.144Z,13.28
2023-03-19T11:18:22.148Z,13.37
2023-03-19T11:19:22.081Z,13.25
2023-03-19T11:20:22.058Z,13.22
2023-03-19T11:21:22.068Z,13.23
2023-03-19T11:22:22.098Z,13.13
2023-03-19T11:23:22.045Z,13.15
2023-03-19T11:24:22.086Z,13.08
2023-03-19T11:25:22.005Z,13.13
2023-03-19T11:26:21.991Z,13.12
2023-03-19T11:27:22.005Z,13.04
2023-03-19T11:28:24.848Z,13.13
2023-03-19T11:29:22.022Z,13.12
2023-03-19T11:30:21.987Z,13.11
2023-03-19T11:31:21.993Z,13.08
2023-03-19T11:32:22.710Z,13.19
2023-03-19T11:33:21.998Z,13.18
2023-03-19T11:34:21.976Z,13.22
2023-03-19T11:35:21.917Z,13.38
2023-03-19T11:36:21.963Z,13.38
2023-03-19T11:37:21.869Z,13.33
2023-03-19T11:38:21.878Z,13.37
2023-03-19T11:39:21.916Z,13.46
2023-03-19T11:40:24.682Z,13.52
2023-03-19T11:41:21.905Z,13.54
2023-03-19T11:42:21.837Z,13.52
2023-03-19T11:43:21.835Z,13.59
2023-03-19T11:44:21.950Z,13.49
2023-03-19T11:45:21.804Z,13.49
2023-03-19T11:46:21.860Z,13.50
2023-03-19T11:47:27.443Z,13.52
2023-03-19T11:48:22.812Z,13.49
2023-03-19T11:49:21.768Z,13.46
2023-03-19T11:50:21.809Z,13.46
2023-03-19T11:51:21.736Z,13.49
2023-03-19T11:52:21.724Z,13.52
2023-03-19T11:53:21.727Z,13.62
2023-03-19T11:54:21.720Z,13.54
2023-03-19T11:55:21.757Z,13.59
2023-03-19T11:56:21.689Z,13.57
2023-03-19T11:57:21.669Z,13.71
2023-03-19T11:58:21.676Z,13.60
2023-03-19T11:59:21.649Z,13.65
2023-03-19T12:00:21.907Z,13.65
2023-03-19T12:01:21.631Z,13.67
2023-03-19T12:02:21.673Z,13.62
2023-03-19T12:03:21.618Z,13.63
2023-03-19T12:04:21.664Z,13.59
2023-03-19T12:05:21.580Z,13.67
2023-03-19T12:06:21.572Z,13.62
2023-03-19T12:07:21.568Z,13.60
2023-03-19T12:08:21.559Z,13.60
2023-03-19T12:09:21.554Z,13.71
2023-03-19T12:10:21.616Z,13.71
2023-03-19T12:11:21.523Z,13.74
2023-03-19T12:12:21.520Z,13.79
2023-03-19T12:13:21.588Z,13.87
2023-03-19T12:14:21.505Z,13.95
2023-03-19T12:15:21.504Z,13.92
2023-03-19T12:16:21.505Z,13.97
2023-03-19T12:17:21.465Z,13.99
2023-03-19T12:18:21.580Z,14.05
2023-03-19T12:19:21.554Z,13.97
2023-03-19T12:20:21.436Z,14.10
2023-03-19T12:21:21.410Z,14.08
2023-03-19T12:22:21.436Z,14.05
2023-03-19T12:23:21.486Z,14.17
2023-03-19T12:24:21.503Z,14.11
2023-03-19T12:25:21.380Z,14.20
2023-03-19T12:26:21.381Z,14.35
2023-03-19T12:27:21.369Z,14.37
2023-03-19T12:28:21.348Z,14.35
2023-03-19T12:29:21.392Z,14.43
2023-03-19T12:30:22.361Z,14.63
2023-03-19T12:31:21.335Z,14.65
2023-03-19T12:32:21.308Z,14.69
2023-03-19T12:33:21.310Z,14.81
2023-03-19T12:34:21.373Z,14.85
2023-03-19T12:35:21.290Z,14.96
2023-03-19T12:36:21.288Z,14.97
2023-03-19T12:37:21.251Z,15.07
2023-03-19T12:38:21.230Z,15.18
2023-03-19T12:39:21.224Z,15.18
2023-03-19T12:40:21.326Z,15.15
2023-03-19T12:41:21.311Z,15.18
2023-03-19T12:42:21.209Z,15.09
2023-03-19T12:43:21.253Z,15.14
2023-03-19T12:44:21.403Z,15.10
2023-03-19T12:45:21.159Z,14.99
2023-03-19T12:46:21.206Z,14.97
2023-03-19T12:47:21.732Z,14.96
2023-03-19T12:48:21.144Z,14.91
2023-03-19T12:49:21.134Z,14.94
2023-03-19T12:50:21.121Z,14.97
2023-03-19T12:51:21.113Z,14.92
2023-03-19T12:52:21.178Z,15.00
2023-03-19T12:53:21.126Z,15.17
2023-03-19T12:54:21.064Z,15.11
2023-03-19T12:55:21.148Z,15.28
2023-03-19T12:56:21.064Z,15.27
2023-03-19T12:57:21.033Z,15.36
2023-03-19T12:58:21.076Z,15.36
2023-03-19T12:59:21.006Z,15.42
2023-03-19T13:00:21.017Z,15.43
2023-03-19T13:01:21.088Z,15.43
2023-03-19T13:02:21.139Z,15.40
2023-03-19T13:03:20.975Z,15.44
2023-03-19T13:04:21.012Z,15.36
2023-03-19T13:05:20.947Z,15.24
2023-03-19T13:06:21.011Z,15.18
2023-03-19T13:07:20.933Z,15.09
2023-03-19T13:08:20.934Z,15.02
2023-03-19T13:09:20.954Z,15.06
2023-03-19T13:10:20.887Z,14.96
2023-03-19T13:11:20.888Z,15.04
2023-03-19T13:12:20.887Z,14.88
2023-03-19T13:13:20.932Z,14.92
2023-03-19T13:14:20.956Z,14.82
2023-03-19T13:15:20.846Z,14.81
2023-03-19T13:16:20.879Z,14.79
2023-03-19T13:17:21.544Z,14.82
2023-03-19T13:18:20.810Z,14.68
2023-03-19T13:19:20.852Z,14.65
2023-03-19T13:20:20.785Z,14.72
2023-03-19T13:21:20.767Z,14.73
2023-03-19T13:22:20.780Z,14.62
2023-03-19T13:23:22.039Z,14.69
2023-03-19T13:24:20.798Z,14.62
2023-03-19T13:25:20.857Z,14.72
2023-03-19T13:26:20.727Z,14.66
2023-03-19T13:27:20.712Z,14.73
2023-03-19T13:28:20.700Z,14.66
2023-03-19T13:29:20.691Z,14.66
2023-03-19T13:30:20.750Z,14.70
2023-03-19T13:31:20.751Z,14.66
2023-03-19T13:32:20.658Z,14.70
2023-03-19T13:33:20.645Z,14.63
2023-03-19T13:34:20.642Z,14.60
2023-03-19T13:35:20.689Z,14.63
2023-03-19T13:36:20.615Z,14.77
2023-03-19T13:37:20.617Z,14.68
2023-03-19T13:38:20.668Z,14.70
2023-03-19T13:39:20.609Z,14.68
2023-03-19T13:40:20.582Z,14.70
2023-03-19T13:41:20.558Z,14.70
2023-03-19T13:42:20.633Z,14.69